createdAt,value
2023-04-15T00:02:24.506Z,93819.66
2023-04-15T00:04:51.456Z,93817.31
2023-04-15T00:07:18.199Z,93811.00
2023-04-15T00:09:44.991Z,93817.59
2023-04-15T00:12:12.480Z,93806.38
2023-04-15T00:14:40.705Z,93807.94
2023-04-15T00:17:07.398Z,93801.41
2023-04-15T00:19:34.160Z,93804.03
2023-04-15T00:22:01.536Z,93800.13
2023-04-15T00:24:28.272Z,93805.91
2023-04-15T00:26:54.954Z,93804.34
2023-04-15T00:29:21.662Z,93801.50
2023-04-15T00:31:50.218Z,93802.53
2023-04-15T00:34:16.938Z,93804.34
2023-04-15T00:36:43.950Z,93800.16
2023-04-15T00:39:10.949Z,93804.09
2023-04-15T00:41:39.717Z,93794.94
2023-04-15T00:44:06.707Z,93805.16
2023-04-15T00:46:36.014Z,93804.34
2023-04-15T00:49:05.643Z,93804.06
2023-04-15T00:51:33.697Z,93799.84
2023-04-15T00:54:00.748Z,93799.25
2023-04-15T00:56:29.665Z,93796.81
2023-04-15T00:58:57.135Z,93802.50
2023-04-15T01:01:25.541Z,93805.63
2023-04-15T01:03:52.376Z,93806.63
2023-04-15T01:06:21.427Z,93801.34
2023-04-15T01:08:48.257Z,93796.06
2023-04-15T01:11:15.844Z,93798.13
2023-04-15T01:13:42.542Z,93794.47
2023-04-15T01:16:09.659Z,93798.97
2023-04-15T01:18:37.752Z,93797.69
2023-04-15T01:21:07.212Z,93799.34
2023-04-15T01:23:39.404Z,93801.97
2023-04-15T01:26:11.364Z,93799.41
2023-04-15T01:28:38.967Z,93800.22
2023-04-15T01:31:07.510Z,93799.72
2023-04-15T01:33:37.269Z,93798.41
2023-04-15T01:36:05.066Z,93795.84
2023-04-15T01:38:33.112Z,93786.97
2023-04-15T01:40:59.874Z,93787.78
2023-04-15T01:43:28.357Z,93789.13
2023-04-15T01:45:55.898Z,93780.75
2023-04-15T01:48:23.033Z,93785.75
2023-04-15T01:50:49.975Z,93785.22
2023-04-15T01:53:16.904Z,93781.53
2023-04-15T01:55:44.070Z,93782.00
2023-04-15T01:58:10.735Z,93788.81
2023-04-15T02:00:38.897Z,93795.34
2023-04-15T02:03:06.632Z,93789.00
2023-04-15T02:05:33.793Z,93792.66
2023-04-15T02:08:00.626Z,93793.97
2023-04-15T02:10:27.520Z,93788.72
2023-04-15T02:12:54.393Z,93781.34
2023-04-15T02:15:21.847Z,93792.59
2023-04-15T02:17:52.680Z,93791.81
2023-04-15T02:20:21.403Z,93787.28
2023-04-15T02:22:48.572Z,93793.03
2023-04-15T02:25:17.034Z,93795.09
2023-04-15T02:27:46.850Z,93789.59
2023-04-15T02:30:13.634Z,93791.66
2023-04-15T02:32:41.310Z,93799.50
2023-04-15T02:35:09.904Z,93797.44
2023-04-15T02:37:41.571Z,93794.88
2023-04-15T02:40:12.118Z,93788.34
2023-04-15T02:42:39.350Z,93794.09
2023-04-15T02:45:08.693Z,93794.41
2023-04-15T02:47:36.341Z,93791.84
2023-04-15T02:50:05.564Z,93791.56
2023-04-15T02:52:33.879Z,93792.13
2023-04-15T02:55:02.523Z,93787.44
2023-04-15T02:57:29.868Z,93788.75
2023-04-15T02:59:59.539Z,93786.16
2023-04-15T03:02:26.639Z,93797.16
2023-04-15T03:04:54.859Z,93795.34
2023-04-15T03:07:22.056Z,93801.38
2023-04-15T03:09:50.665Z,93802.16
2023-04-15T03:12:17.291Z,93799.28
2023-04-15T03:14:44.897Z,93802.47
2023-04-15T03:17:11.528Z,93799.56
2023-04-15T03:19:38.977Z,93799.03
2023-04-15T03:22:05.818Z,93794.28
2023-04-15T03:24:32.473Z,93794.28
2023-04-15T03:27:02.030Z,93795.34
2023-04-15T03:29:29.338Z,93797.41
2023-04-15T03:31:56.241Z,93795.06
2023-04-15T03:34:23.210Z,93803.16
2023-04-15T03:36:50.139Z,93796.88
2023-04-15T03:39:17.173Z,93797.69
2023-04-15T03:41:43.991Z,93789.25
2023-04-15T03:44:12.111Z,93797.38
2023-04-15T03:46:38.877Z,93786.28
2023-04-15T03:49:07.148Z,93789.13
2023-04-15T03:51:33.904Z,93783.59
2023-04-15T03:54:00.542Z,93784.91
2023-04-15T03:56:27.183Z,93789.31
2023-04-15T03:58:53.830Z,93778.84
2023-04-15T04:01:23.049Z,93782.28
2023-04-15T04:03:49.867Z,93772.81
2023-04-15T04:06:16.984Z,93774.84
2023-04-15T04:08:43.919Z,93786.09
2023-04-15T04:11:10.681Z,93787.91
2023-04-15T04:13:37.357Z,93790.53
2023-04-15T04:16:05.093Z,93781.31
2023-04-15T04:18:33.579Z,93792.03
2023-04-15T04:21:00.619Z,93793.03
2023-04-15T04:23:27.407Z,93794.84
2023-04-15T04:25:54.045Z,93790.41
2023-04-15T04:28:20.904Z,93797.22
2023-04-15T04:30:47.650Z,93797.72
2023-04-15T04:33:14.451Z,93800.84
2023-04-15T04:35:42.621Z,93801.06
2023-04-15T04:38:09.373Z,93806.59
2023-04-15T04:40:36.489Z,93804.84
2023-04-15T04:43:03.332Z,93807.75
2023-04-15T04:45:30.008Z,93812.19
2023-04-15T04:47:56.699Z,93810.13
2023-04-15T04:50:23.373Z,93810.44
2023-04-15T04:52:51.801Z,93817.53
2023-04-15T04:55:18.652Z,93814.81
2023-04-15T04:57:45.825Z,93813.72
2023-04-15T05:00:14.037Z,93813.44
2023-04-15T05:02:42.412Z,93813.66
2023-04-15T05:05:09.823Z,93813.91
2023-04-15T05:07:37.100Z,93814.72
2023-04-15T05:10:06.626Z,93808.97
2023-04-15T05:12:33.266Z,93807.94
2023-04-15T05:15:00.089Z,93809.22
2023-04-15T05:17:27.303Z,93806.84
2023-04-15T05:19:54.062Z,93814.44
2023-04-15T05:22:20.773Z,93807.41
2023-04-15T05:24:47.621Z,93808.75
2023-04-15T05:27:15.857Z,93808.47
2023-04-15T05:29:42.802Z,93813.22
2023-04-15T05:32:09.517Z,93815.38
2023-04-15T05:34:36.176Z,93813.34
2023-04-15T05:37:03.056Z,93809.75
2023-04-15T05:39:29.682Z,93814.28
2023-04-15T05:41:57.735Z,93825.13
2023-04-15T05:44:25.905Z,93822.84
2023-04-15T05:46:52.690Z,93824.22
2023-04-15T05:49:19.326Z,93832.91
2023-04-15T05:51:47.438Z,93824.56
2023-04-15T05:54:14.221Z,93830.41
2023-04-15T05:56:41.021Z,93819.19
2023-04-15T05:59:28.395Z,93826.53
2023-04-15T06:01:55.267Z,93828.66
2023-04-15T06:04:22.855Z,93827.09
2023-04-15T06:06:49.609Z,93832.88
2023-04-15T06:09:16.993Z,93828.41
2023-04-15T06:11:43.828Z,93821.88
2023-04-15T06:14:10.558Z,93825.59
2023-04-15T06:16:38.755Z,93821.72
2023-04-15T06:19:05.532Z,93823.56
2023-04-15T06:21:32.473Z,93828.31
2023-04-15T06:24:01.429Z,93823.09
2023-04-15T06:26:28.591Z,93825.47
2023-04-15T06:28:55.675Z,93832.88
2023-04-15T06:31:22.306Z,93827.66
2023-04-15T06:33:50.969Z,93829.00
2023-04-15T06:36:18.423Z,93828.78
2023-04-15T06:38:45.462Z,93832.50
2023-04-15T06:41:12.288Z,93830.44
2023-04-15T06:43:40.425Z,93835.44
2023-04-15T06:46:07.145Z,93830.19
2023-04-15T06:48:33.849Z,93837.59
2023-04-15T06:51:01.996Z,93831.03
2023-04-15T06:53:29.082Z,93826.28
2023-04-15T06:55:56.034Z,93829.44
2023-04-15T06:58:22.865Z,93821.06
2023-04-15T07:00:49.581Z,93824.75
2023-04-15T07:03:16.351Z,93821.34
2023-04-15T07:05:43.519Z,93822.69
2023-04-15T07:08:11.563Z,93823.72
2023-04-15T07:10:38.202Z,93823.19
2023-04-15T07:13:05.735Z,93817.72
2023-04-15T07:15:32.550Z,93819.81
2023-04-15T07:17:59.207Z,93819.84
2023-04-15T07:20:26.000Z,93818.53
2023-04-15T07:22:53.098Z,93817.72
2023-04-15T07:25:21.283Z,93818.78
2023-04-15T07:27:48.127Z,93815.41
2023-04-15T07:30:14.955Z,93811.72
2023-04-15T07:32:42.619Z,93812.50
2023-04-15T07:35:09.779Z,93813.56
2023-04-15T07:37:36.583Z,93810.94
2023-04-15T07:40:05.020Z,93811.97
2023-04-15T07:42:33.634Z,93813.56
2023-04-15T07:45:00.580Z,93816.97
2023-04-15T07:47:27.505Z,93812.75
2023-04-15T07:49:54.260Z,93818.28
2023-04-15T07:52:20.982Z,93819.06
2023-04-15T07:54:47.765Z,93808.00
2023-04-15T07:57:14.480Z,93816.44
2023-04-15T07:59:42.550Z,93815.59
2023-04-15T08:02:09.915Z,93810.63
2023-04-15T08:04:36.955Z,93817.44
2023-04-15T08:07:04.832Z,93817.72
2023-04-15T08:09:31.703Z,93813.25
2023-04-15T08:11:58.339Z,93816.09
2023-04-15T08:14:25.006Z,93818.19
2023-04-15T08:16:53.412Z,93806.34
2023-04-15T08:19:20.546Z,93808.41
2023-04-15T08:21:47.598Z,93805.75
2023-04-15T08:24:14.449Z,93811.53
2023-04-15T08:26:41.948Z,93815.47
2023-04-15T08:29:09.184Z,93813.06
2023-04-15T08:31:35.979Z,93814.09
2023-04-15T08:34:04.819Z,93814.06
2023-04-15T08:36:32.469Z,93811.84
2023-04-15T08:39:01.454Z,93812.56
2023-04-15T08:41:32.432Z,93808.53
2023-04-15T08:44:03.662Z,93808.19
2023-04-15T08:46:31.586Z,93801.72
2023-04-15T08:48:59.217Z,93801.03
2023-04-15T08:51:27.677Z,93806.22
2023-04-15T08:53:55.007Z,93803.75
2023-04-15T08:56:25.247Z,93799.72
2023-04-15T09:10:30.946Z,93800.91
2023-04-15T09:12:57.824Z,93801.28
2023-04-15T09:18:29.178Z,93797.91
2023-04-15T09:20:56.526Z,93801.53
2023-04-15T09:49:44.103Z,93809.22
2023-04-15T09:52:14.370Z,93810.69
2023-04-15T09:57:38.210Z,93820.06
2023-04-15T10:00:07.634Z,93818.72
2023-04-15T10:02:35.058Z,93819.47
2023-04-15T10:05:02.478Z,93812.34
2023-04-15T10:07:30.885Z,93817.41
2023-04-15T10:10:00.867Z,93810.25
2023-04-15T10:12:28.577Z,93816.91
2023-04-15T10:14:59.363Z,93815.94
2023-04-15T10:24:02.026Z,93824.91
